Latest Weather Observations for Eildon Fire Tower

IDV60801

Issued at 11:31 pm EST Wednesday 4 May 2016 (issued every 30 minutes, with the page automatically refreshed every 10 minutes)

About weather observations | Map of weather stations | Latest weather observations for VIC | Other Formats
Station Details ID: 088164 Name: EILDON FIRE TOWER Lat: -37.21 Lon: 145.84 Height: 637.0 m
Data from the previous 72 hours. | See also: Recent months at Eildon Fire Tower
Date/Time
EST
Temp
°C
App
Temp
°C
Dew
Point
Rel
Hum
%
Delta-T
°C
Wind Press
QNH
hPa
Press
MSL
hPa
Rain
since 9 am
mm
Dir
 
Spd
km/h
Gust
km/h
Spd
kts
Gust
kts
04/11:30pm 9.3 5.3 4.9 74 2.0 NNE 15 19 8 10 - - 0.0
04/11:00pm 9.6 5.2 4.6 71 2.3 N 17 22 9 12 - - 0.0
04/10:30pm 9.3 4.9 4.7 73 2.1 NNE 17 24 9 13 - - 0.0
04/10:00pm 9.3 4.5 4.7 73 2.1 NNE 19 22 10 12 - - 0.0
04/09:30pm 9.3 4.9 4.5 72 2.2 NNE 17 22 9 12 - - 0.0
04/09:00pm 9.5 4.7 4.5 71 2.3 N 19 24 10 13 - - 0.0
04/08:30pm 9.5 4.7 4.5 71 2.3 N 19 26 10 14 - - 0.0
04/08:00pm 9.4 4.6 4.6 72 2.2 N 19 24 10 13 - - 0.0
04/07:30pm 9.4 5.0 4.6 72 2.2 N 17 22 9 12 - - 0.0
04/07:00pm 9.4 5.3 4.6 72 2.2 N 15 20 8 11 - - 0.0
04/06:30pm 9.4 5.3 4.6 72 2.2 N 15 20 8 11 - - 0.0
04/06:00pm 9.3 6.1 4.9 74 2.0 NNE 11 20 6 11 - - 0.0
04/05:30pm 9.6 6.7 4.4 70 2.4 NNE 9 20 5 11 - - 0.0
04/05:00pm 9.8 7.3 5.0 72 2.2 N 7 17 4 9 - - 0.0
04/04:30pm 10.0 6.7 4.6 69 2.5 N 11 19 6 10 - - 0.0
04/04:00pm 10.2 6.6 4.8 69 2.5 NNW 13 20 7 11 - - 0.0
04/03:30pm 10.1 6.0 4.5 68 2.6 NNW 15 22 8 12 - - 0.0
04/03:00pm 10.4 7.1 4.3 66 2.8 NNW 11 19 6 10 - - 0.0
04/02:30pm 11.3 8.0 4.3 62 3.3 NNW 11 20 6 11 - - 0.0
04/02:00pm 10.9 6.9 4.8 66 2.9 NW 15 26 8 14 - - 0.0
04/01:30pm 11.5 8.2 4.5 62 3.3 NW 11 24 6 13 - - 0.0
04/01:00pm 10.4 7.8 4.1 65 2.9 N 7 17 4 9 - - 0.0
04/12:30pm 11.8 9.7 6.5 70 2.6 N 7 15 4 8 - - 0.0
04/12:00pm 10.4 8.0 5.2 70 2.5 WNW 7 9 4 5 - - 0.0
04/11:30am 9.7 7.1 4.3 69 2.5 W 7 15 4 8 - - 0.0
04/11:00am 9.1 6.7 5.1 76 1.9 W 7 11 4 6 - - 0.0
04/10:30am 8.5 5.6 4.9 78 1.7 WNW 9 11 5 6 - - 0.0
04/10:00am 7.7 5.3 4.5 80 1.5 WNW 6 15 3 8 - - 0.0
04/09:30am 7.4 5.5 4.9 84 1.1 NNW 4 9 2 5 - - 0.0
04/09:00am 7.3 5.7 6.2 93 0.5 N 4 6 2 3 - - 6.8
04/08:30am 7.8 6.8 7.5 98 0.1 NW 2 6 1 3 - - 6.6
04/08:00am 6.3 5.0 6.0 98 0.1 W 2 6 1 3 - - 6.6
04/07:30am 5.5 3.3 5.2 98 0.1 W 6 9 3 5 - - 6.6
04/07:00am 5.5 3.3 5.2 98 0.1 SW 6 7 3 4 - - 6.6
04/06:30am 6.0 3.3 5.7 98 0.1 W 9 11 5 6 - - 6.6
04/06:00am 6.3 3.7 6.0 98 0.1 W 9 11 5 6 - - 6.6
04/05:30am 6.5 2.8 6.2 98 0.1 W 15 19 8 10 - - 6.6
04/05:00am 6.8 2.8 6.5 98 0.1 W 17 19 9 10 - - 6.6
04/04:30am 7.0 3.0 6.7 98 0.1 WSW 17 20 9 11 - - 6.6
04/04:00am 6.3 2.5 6.0 98 0.1 W 15 19 8 10 - - 6.6
04/03:30am 6.5 2.0 6.2 98 0.1 W 19 24 10 13 - - 6.6
04/03:00am 6.3 1.8 6.0 98 0.1 SW 19 30 10 16 - - 6.4
04/02:30am 8.0 4.2 7.7 98 0.1 W 17 20 9 11 - - 5.6
04/02:00am 7.9 4.5 7.6 98 0.1 W 15 17 8 9 - - 5.6
04/01:30am 7.8 4.4 7.5 98 0.1 W 15 17 8 9 - - 5.6
04/01:00am 7.8 4.0 7.5 98 0.1 WSW 17 22 9 12 - - 5.6
04/12:30am 7.9 3.2 7.6 98 0.1 WSW 22 28 12 15 - - 5.2
04/12:00am 7.7 3.9 7.4 98 0.1 WSW 17 24 9 13 - - 5.2
 
Date/Time
EST
Temp
°C
App
Temp
°C
Dew
Point
Rel
Hum
%
Delta-T
°C
Wind Press
QNH
hPa
Press
MSL
hPa
Rain
since 9 am
mm
Dir
 
Spd
km/h
Gust
km/h
Spd
kts
Gust
kts
03/11:30pm 7.9 4.1 7.6 98 0.1 WSW 17 24 9 13 - - 5.2
03/11:00pm 7.8 3.6 7.5 98 0.1 WSW 19 26 10 14 - - 5.2
03/10:30pm 7.7 2.2 7.4 98 0.1 WSW 26 35 14 19 - - 4.8
03/10:00pm 7.7 1.4 7.3 97 0.2 WSW 30 39 16 21 - - 4.6
03/09:32pm 7.7 1.4 7.3 97 0.2 WSW 30 48 16 26 - - 4.2
03/09:30pm 7.7 0.9 7.1 96 0.3 WSW 32 48 17 26 - - 3.6
03/09:10pm 8.6 4.3 7.2 91 0.7 WSW 19 48 10 26 - - 2.8
03/09:00pm 10.7 7.5 9.8 94 0.5 NW 17 32 9 17 - - 2.8
03/08:30pm 10.8 7.6 10.0 95 0.4 NNW 17 28 9 15 - - 2.8
03/08:00pm 11.0 7.5 10.1 94 0.5 NW 19 28 10 15 - - 2.4
03/07:30pm 11.2 7.7 10.1 93 0.6 NW 19 30 10 16 - - 2.4
03/07:00pm 11.2 8.0 10.1 93 0.6 NW 17 32 9 17 - - 2.4
03/06:30pm 11.2 7.7 10.1 93 0.6 NW 19 32 10 17 - - 2.2
03/06:00pm 11.2 7.2 10.3 94 0.5 WNW 22 33 12 18 - - 2.2
03/05:30pm 10.8 6.0 10.2 96 0.3 NNW 26 44 14 24 - - 2.2
03/05:04pm 10.6 5.7 10.0 96 0.3 WNW 26 50 14 27 - - 2.2
03/05:00pm 10.6 6.5 10.0 96 0.3 NW 22 35 12 19 - - 2.0
03/04:30pm 10.6 5.4 8.7 88 1.0 N 26 43 14 23 - - 0.0
03/04:00pm 11.7 7.7 8.4 80 1.7 N 19 37 10 20 - - 0.0
03/03:30pm 12.6 5.3 7.3 70 2.7 N 35 59 19 32 - - 0.0
03/03:03pm 13.0 4.9 6.8 66 3.1 NNW 39 65 21 35 - - 0.0
03/03:00pm 13.2 5.4 6.8 65 3.2 NNW 37 52 20 28 - - 0.0
03/02:51pm 13.5 6.9 6.1 61 3.6 N 30 50 16 27 - - 0.0
03/02:30pm 14.1 8.6 5.7 57 4.1 N 24 44 13 24 - - 0.0
03/02:00pm 14.4 7.0 5.0 53 4.6 N 33 54 18 29 - - 0.0
03/01:37pm 14.7 7.3 5.0 52 4.7 NNW 33 54 18 29 - - 0.0
03/01:30pm 14.2 6.4 4.8 53 4.5 NNW 35 54 19 29 - - 0.0
03/01:00pm 15.5 9.2 5.7 52 4.9 NNW 28 46 15 25 - - 0.0
03/12:42pm 15.1 8.6 4.8 50 5.0 N 28 46 15 25 - - 0.0
03/12:30pm 15.2 10.0 5.7 53 4.7 N 22 41 12 22 - - 0.0
03/12:24pm 14.5 8.2 5.6 55 4.4 N 28 50 15 27 - - 0.0
03/12:00pm 14.4 9.2 5.5 55 4.4 N 22 41 12 22 - - 0.0
03/11:30am 14.5 9.8 6.1 57 4.2 NNE 20 37 11 20 - - 0.0
03/11:00am 14.0 9.4 5.4 56 4.2 NNE 19 32 10 17 - - 0.0
03/10:30am 13.2 8.0 5.4 59 3.8 NNE 22 46 12 25 - - 0.0
03/10:00am 12.6 8.4 5.8 63 3.3 NNE 17 26 9 14 - - 0.0
03/09:30am 11.4 7.0 4.8 64 3.1 NNE 17 28 9 15 - - 0.0
03/09:00am 11.1 6.7 5.0 66 2.9 N 17 26 9 14 - - 0.0
03/08:30am 10.7 5.7 4.4 65 2.9 N 20 32 11 17 - - 0.0
03/08:00am 10.3 4.9 4.5 67 2.7 N 22 30 12 16 - - 0.0
03/07:30am 9.8 4.8 4.6 70 2.4 N 20 30 11 16 - - 0.0
03/07:00am 9.8 4.4 4.6 70 2.4 N 22 33 12 18 - - 0.0
03/06:30am 9.7 4.0 4.7 71 2.3 N 24 32 13 17 - - 0.0
03/06:00am 9.8 4.8 4.6 70 2.4 NNE 20 39 11 21 - - 0.0
03/05:30am 10.5 4.6 4.0 64 3.0 N 24 33 13 18 - - 0.0
03/05:00am 10.2 4.4 4.6 68 2.6 N 24 35 13 19 - - 0.0
03/04:30am 9.6 4.9 5.0 73 2.1 NNE 19 26 10 14 - - 0.0
03/04:00am 10.0 5.0 4.6 69 2.5 NNE 20 32 11 17 - - 0.0
03/03:30am 10.5 4.2 4.0 64 3.0 NNE 26 43 14 23 - - 0.0
03/03:00am 10.2 4.8 4.4 67 2.7 NNE 22 39 12 21 - - 0.0
03/02:30am 10.4 4.2 4.1 65 2.9 NNE 26 39 14 21 - - 0.0
03/02:00am 10.2 4.4 4.4 67 2.7 N 24 32 13 17 - - 0.0
03/01:30am 10.1 4.3 4.5 68 2.6 NNE 24 33 13 18 - - 0.0
03/01:00am 10.0 4.6 4.6 69 2.5 NNE 22 35 12 19 - - 0.0
03/12:30am 9.5 5.2 5.1 74 2.1 NNE 17 28 9 15 - - 0.0
03/12:00am 9.4 4.1 5.2 75 2.0 NNE 22 32 12 17 - - 0.0
 
Date/Time
EST
Temp
°C
App
Temp
°C
Dew
Point
Rel
Hum
%
Delta-T
°C
Wind Press
QNH
hPa
Press
MSL
hPa
Rain
since 9 am
mm
Dir
 
Spd
km/h
Gust
km/h
Spd
kts
Gust
kts
02/11:30pm 9.6 3.8 4.4 70 2.4 NNE 24 33 13 18 - - 0.0
02/11:00pm 9.5 4.0 4.1 69 2.5 NNE 22 28 12 15 - - 0.0
02/10:30pm 9.8 4.0 4.2 68 2.6 N 24 35 13 19 - - 0.0
02/10:00pm 9.9 4.4 4.1 67 2.7 N 22 35 12 19 - - 0.0
02/09:30pm 9.8 4.8 4.6 70 2.4 N 20 30 11 16 - - 0.0
02/09:00pm 9.9 5.5 4.9 71 2.3 N 17 24 9 13 - - 0.0
02/08:30pm 9.7 5.0 5.1 73 2.2 N 19 28 10 15 - - 0.0
02/08:00pm 9.7 5.1 5.5 75 2.0 N 19 30 10 16 - - 0.0
02/07:30pm 9.6 5.0 5.6 76 1.9 NNE 19 28 10 15 - - 0.0
02/07:00pm 9.7 6.0 6.2 79 1.7 NNE 15 22 8 12 - - 0.0
02/06:30pm 9.6 6.2 6.1 79 1.7 NNE 13 20 7 11 - - 0.0
02/06:00pm 9.9 5.7 5.5 74 2.1 NNE 17 26 9 14 - - 0.0
02/05:30pm 9.8 6.4 5.8 76 1.9 NNE 13 17 7 9 - - 0.0
02/05:00pm 9.5 7.0 6.4 81 1.5 NNE 9 17 5 9 - - 0.0
02/04:30pm 9.6 5.5 6.3 80 1.6 NNE 17 24 9 13 - - 0.0
02/04:00pm 9.3 5.5 6.0 80 1.6 N 15 30 8 16 - - 0.0
02/03:30pm 9.3 5.1 5.9 79 1.6 NNE 17 26 9 14 - - 0.0
02/03:00pm 9.9 6.1 5.9 76 1.9 NNE 15 26 8 14 - - 0.0
02/02:30pm 9.6 5.5 4.6 71 2.3 NNE 15 26 8 14 - - 0.0
02/02:00pm 9.6 5.2 4.6 71 2.3 NNE 17 28 9 15 - - 0.0
02/01:30pm 10.0 7.3 5.4 73 2.2 N 9 17 5 9 - - 0.0
02/01:00pm 10.0 7.8 6.2 77 1.8 NNE 7 22 4 12 - - 0.0
02/12:30pm 9.1 6.3 5.1 76 1.9 NNE 9 17 5 9 - - 0.0
02/12:00pm 8.2 5.5 5.5 83 1.3 NNE 9 15 5 8 - - 0.0
02/11:30am 7.8 5.3 4.7 81 1.4 NNE 7 15 4 8 - - 0.0
02/11:00am 7.2 4.0 5.0 86 1.0 NNE 11 15 6 8 - - 0.0
02/10:30am 6.9 3.2 4.6 85 1.0 NNE 13 17 7 9 - - 0.0
02/10:00am 6.6 3.3 4.4 86 1.0 NNE 11 15 6 8 - - 0.0
02/09:30am 6.1 2.7 4.1 87 0.9 NNE 11 13 6 7 - - 0.0
02/09:00am 6.1 3.0 3.8 85 1.0 NNE 9 13 5 7 - - 2.0
02/08:30am 6.5 3.8 3.5 81 1.3 NNE 7 13 4 7 - - 2.0
02/08:00am 5.8 2.7 3.6 86 1.0 NNE 9 13 5 7 - - 2.0
02/07:30am 5.1 1.6 3.4 89 0.7 NNE 11 13 6 7 - - 2.0
02/07:00am 4.6 1.0 2.9 89 0.7 N 11 13 6 7 - - 2.0
02/06:30am 4.6 1.4 3.1 90 0.6 N 9 11 5 6 - - 2.0
02/06:00am 5.2 2.0 2.9 85 1.0 N 9 13 5 7 - - 2.0
02/05:30am 6.0 1.9 2.5 78 1.5 NNW 13 17 7 9 - - 2.0
02/05:00am 5.7 1.7 2.9 82 1.2 NNW 13 17 7 9 - - 2.0
02/04:30am 5.8 2.4 1.9 76 1.6 NW 9 15 5 8 - - 2.0
02/04:00am 6.0 2.6 2.1 76 1.6 NW 9 15 5 8 - - 2.0
02/03:30am 6.1 2.0 2.2 76 1.7 NNW 13 17 7 9 - - 2.0
02/03:00am 6.5 2.8 2.2 74 1.8 NNW 11 17 6 9 - - 2.0
02/02:30am 6.5 2.4 2.0 73 1.9 NNW 13 17 7 9 - - 2.0
02/02:00am 6.3 2.9 1.8 73 1.9 NW 9 15 5 8 - - 2.0
02/01:30am 7.1 2.5 1.4 67 2.4 WNW 15 17 8 9 - - 2.0
02/01:00am 6.9 2.7 1.4 68 2.3 WNW 13 15 7 8 - - 2.0
02/12:30am 6.6 2.8 1.5 70 2.1 W 11 15 6 8 - - 2.0
02/12:00am 6.9 1.9 1.6 69 2.2 WNW 17 20 9 11 - - 2.0

Other Formats:

Comma delimited format used in spreadsheet applications
http://www.bom.gov.au/fwo/IDV60801/IDV60801.94881.axf

JavaScript Object Notation format (JSON) in row-major order
http://www.bom.gov.au/fwo/IDV60801/IDV60801.94881.json